Time;durP1;ratioP1;P1;durP2;ratioP2;P2;SDS_P1;SDS_P2;PMS_P1;PMS_P2;Temp;Humidity;BMP_temperature;BMP_pressure;BME280_temperature;BME280_humidity;BME280_pressure;Samples;Min_cycle;Max_cycle;Signal;HPM_P1;HPM_P2
2022/05/19 00:04:11;;;;;;;7.10;4.22;;;;;;;;;;10015870;28;20081;-66
2022/05/19 00:09:08;;;;;;;6.30;3.97;;;;;;;;;;10120066;28;20559;-65
2022/05/19 00:14:04;;;;;;;5.78;4.10;;;;;;;;;;10049168;28;20131;-67
2022/05/19 00:19:00;;;;;;;5.82;4.03;;;;;;;;;;10012693;28;20733;-67
2022/05/19 00:23:57;;;;;;;7.53;4.28;;;;;;;;;;9982885;29;20076;-67
2022/05/19 00:28:53;;;;;;;8.38;4.60;;;;;;;;;;9986152;28;20099;-67
2022/05/19 00:33:49;;;;;;;8.32;4.20;;;;;;;;;;9991026;28;20110;-68
2022/05/19 00:38:46;;;;;;;7.07;5.10;;;;;;;;;;9978233;29;20082;-67
2022/05/19 00:43:44;;;;;;;8.65;4.30;;;;;;;;;;9981011;28;20523;-64
2022/05/19 00:49:01;;;;;;;7.10;4.30;;;;;;;;;;10022197;28;20084;-64
2022/05/19 00:53:57;;;;;;;5.97;4.45;;;;;;;;;;10015167;28;20044;-67
2022/05/19 00:58:56;;;;;;;7.20;5.13;;;;;;;;;;10099260;28;20066;-64
2022/05/19 01:03:58;;;;;;;6.20;4.20;;;;;;;;;;9961062;28;20048;-64
2022/05/19 01:08:57;;;;;;;7.37;4.70;;;;;;;;;;9962780;29;20135;-67
2022/05/19 01:13:53;;;;;;;9.52;4.80;;;;;;;;;;10016590;28;20581;-67
2022/05/19 01:18:50;;;;;;;9.40;4.80;;;;;;;;;;9989269;29;20418;-68
2022/05/19 01:24:04;;;;;;;7.60;4.28;;;;;;;;;;9983468;29;20052;-67
2022/05/19 01:29:01;;;;;;;7.65;4.43;;;;;;;;;;9968490;29;20107;-67
2022/05/19 01:33:58;;;;;;;7.53;4.35;;;;;;;;;;9973225;28;20053;-66
2022/05/19 01:39:02;;;;;;;7.30;4.97;;;;;;;;;;9978231;29;20107;-68
2022/05/19 01:44:22;;;;;;;6.95;4.43;;;;;;;;;;9989135;28;20506;-68
2022/05/19 01:49:22;;;;;;;6.70;4.88;;;;;;;;;;9966658;28;20557;-65
2022/05/19 01:54:31;;;;;;;7.20;5.30;;;;;;;;;;9986671;29;20131;-67
2022/05/19 01:59:45;;;;;;;9.38;5.10;;;;;;;;;;9993896;28;20457;-64
2022/05/19 02:04:49;;;;;;;6.93;4.22;;;;;;;;;;9982251;28;20052;-64
2022/05/19 02:09:49;;;;;;;7.78;5.18;;;;;;;;;;9988822;28;20166;-68
2022/05/19 02:14:48;;;;;;;8.27;4.95;;;;;;;;;;10010592;28;20525;-66
2022/05/19 02:19:45;;;;;;;7.45;4.93;;;;;;;;;;9991908;28;20135;-66
2022/05/19 02:24:46;;;;;;;7.97;5.25;;;;;;;;;;9984694;28;20098;-66
2022/05/19 02:29:42;;;;;;;9.73;5.57;;;;;;;;;;9987994;28;20064;-66
2022/05/19 02:34:38;;;;;;;8.27;5.43;;;;;;;;;;9988538;28;20044;-65
2022/05/19 02:39:35;;;;;;;7.28;4.85;;;;;;;;;;9994553;28;20502;-66
2022/05/19 02:44:31;;;;;;;6.18;4.93;;;;;;;;;;9989639;28;20455;-67
2022/05/19 02:49:28;;;;;;;5.60;4.53;;;;;;;;;;9982568;28;20052;-68
2022/05/19 02:54:24;;;;;;;8.18;5.57;;;;;;;;;;9978963;28;20467;-65
2022/05/19 02:59:20;;;;;;;7.82;5.45;;;;;;;;;;10025841;28;20095;-64
2022/05/19 03:04:17;;;;;;;7.95;5.65;;;;;;;;;;9974654;28;20162;-66
2022/05/19 03:09:13;;;;;;;9.75;5.30;;;;;;;;;;9969738;28;20170;-66
2022/05/19 03:14:09;;;;;;;6.00;4.63;;;;;;;;;;9978298;28;20135;-67
2022/05/19 03:19:06;;;;;;;12.55;5.85;;;;;;;;;;9983680;28;20141;-65
2022/05/19 03:24:02;;;;;;;10.05;5.90;;;;;;;;;;9969001;28;20443;-64
2022/05/19 03:28:58;;;;;;;9.65;5.40;;;;;;;;;;9976660;28;20107;-64
2022/05/19 03:33:55;;;;;;;9.65;6.05;;;;;;;;;;9985838;28;20056;-65
2022/05/19 03:38:51;;;;;;;6.78;5.30;;;;;;;;;;9985038;28;20125;-67
2022/05/19 03:43:47;;;;;;;10.77;5.85;;;;;;;;;;9987143;28;20159;-67
2022/05/19 03:48:44;;;;;;;9.60;5.70;;;;;;;;;;9972288;28;20106;-67
2022/05/19 03:53:40;;;;;;;8.63;5.00;;;;;;;;;;9975193;28;20076;-64
2022/05/19 03:58:36;;;;;;;9.18;5.47;;;;;;;;;;9977273;28;20064;-64
2022/05/19 04:03:32;;;;;;;11.73;6.63;;;;;;;;;;9985848;28;20075;-64
2022/05/19 04:08:29;;;;;;;10.35;6.95;;;;;;;;;;10021172;28;20041;-64
2022/05/19 04:13:26;;;;;;;9.10;6.35;;;;;;;;;;9991738;28;20562;-65
2022/05/19 04:18:22;;;;;;;13.88;6.95;;;;;;;;;;9961399;28;20135;-67
2022/05/19 04:23:19;;;;;;;9.85;6.60;;;;;;;;;;9959263;28;20142;-68
2022/05/19 04:28:15;;;;;;;11.25;6.78;;;;;;;;;;9964598;28;20126;-67
2022/05/19 04:33:12;;;;;;;8.82;6.15;;;;;;;;;;9961073;28;20045;-67
2022/05/19 04:38:10;;;;;;;12.38;6.63;;;;;;;;;;9956332;28;20084;-66
2022/05/19 04:43:07;;;;;;;9.35;5.78;;;;;;;;;;9959492;28;20479;-67
2022/05/19 04:48:04;;;;;;;10.13;6.85;;;;;;;;;;9986482;28;20052;-67
2022/05/19 04:53:00;;;;;;;12.43;6.85;;;;;;;;;;9965320;28;20178;-68
2022/05/19 04:57:57;;;;;;;9.50;6.30;;;;;;;;;;9960858;28;20072;-65
2022/05/19 05:02:53;;;;;;;10.93;6.47;;;;;;;;;;9978202;28;20068;-66
2022/05/19 05:07:49;;;;;;;11.25;6.68;;;;;;;;;;9962880;28;20052;-68
2022/05/19 05:12:46;;;;;;;9.70;5.88;;;;;;;;;;9954778;28;20063;-67
2022/05/19 05:17:42;;;;;;;9.18;5.68;;;;;;;;;;9969842;28;20086;-67
2022/05/19 05:22:39;;;;;;;9.95;5.43;;;;;;;;;;9963416;28;20143;-71
2022/05/19 05:27:35;;;;;;;10.00;6.25;;;;;;;;;;9966300;28;20128;-68
2022/05/19 05:32:31;;;;;;;10.07;6.07;;;;;;;;;;9977613;28;20049;-68
2022/05/19 05:37:28;;;;;;;8.27;5.80;;;;;;;;;;9963224;28;20557;-68
2022/05/19 05:42:24;;;;;;;10.77;5.57;;;;;;;;;;9954876;28;20597;-68
2022/05/19 05:47:20;;;;;;;8.43;5.45;;;;;;;;;;10015686;28;20048;-68
2022/05/19 05:52:17;;;;;;;9.68;5.47;;;;;;;;;;9955367;28;20060;-67
2022/05/19 05:57:14;;;;;;;9.35;5.50;;;;;;;;;;9965250;28;20429;-68
2022/05/19 06:02:11;;;;;;;10.25;5.53;;;;;;;;;;9965068;28;20052;-68
2022/05/19 06:07:07;;;;;;;10.00;5.57;;;;;;;;;;9970020;28;20053;-68
2022/05/19 06:12:04;;;;;;;7.60;5.13;;;;;;;;;;9974202;28;20098;-68
2022/05/19 06:17:00;;;;;;;9.05;5.80;;;;;;;;;;9969924;28;20051;-68
2022/05/19 06:21:57;;;;;;;7.97;4.70;;;;;;;;;;9971343;28;20135;-67
2022/05/19 06:26:53;;;;;;;9.93;6.10;;;;;;;;;;9965090;28;20126;-68
2022/05/19 06:31:49;;;;;;;7.88;4.70;;;;;;;;;;9967402;28;20062;-68
2022/05/19 06:36:46;;;;;;;9.50;4.75;;;;;;;;;;9963014;28;20119;-68
2022/05/19 06:42:01;;;;;;;13.30;5.07;;;;;;;;;;9965743;28;20091;-68
2022/05/19 06:46:58;;;;;;;10.30;5.68;;;;;;;;;;9974126;28;20047;-68
2022/05/19 06:51:55;;;;;;;8.75;4.55;;;;;;;;;;9969469;28;20055;-69
2022/05/19 06:56:51;;;;;;;10.13;5.07;;;;;;;;;;9971743;28;20091;-68
2022/05/19 07:01:48;;;;;;;9.38;4.53;;;;;;;;;;9960412;28;20048;-68
2022/05/19 07:06:44;;;;;;;9.77;4.93;;;;;;;;;;9968159;28;20154;-68
2022/05/19 07:11:41;;;;;;;7.40;3.95;;;;;;;;;;9954165;28;20135;-68
2022/05/19 07:16:37;;;;;;;8.27;4.55;;;;;;;;;;9960065;28;20133;-69
2022/05/19 07:21:34;;;;;;;7.13;4.18;;;;;;;;;;9958426;28;20044;-68
2022/05/19 07:26:31;;;;;;;8.77;4.40;;;;;;;;;;9952787;28;20059;-68
2022/05/19 07:31:28;;;;;;;7.38;4.22;;;;;;;;;;9958729;28;20143;-68
2022/05/19 07:36:25;;;;;;;10.75;4.28;;;;;;;;;;9954213;28;20151;-68
2022/05/19 07:41:27;;;;;;;6.88;3.45;;;;;;;;;;9957699;28;20490;-69
2022/05/19 07:46:24;;;;;;;6.75;3.80;;;;;;;;;;9967518;28;20048;-68
2022/05/19 07:51:28;;;;;;;7.13;3.72;;;;;;;;;;9957920;28;20053;-68
2022/05/19 07:56:25;;;;;;;7.13;3.10;;;;;;;;;;9963721;28;20052;-68
2022/05/19 08:01:21;;;;;;;5.63;3.50;;;;;;;;;;9973805;28;20052;-66
2022/05/19 08:06:17;;;;;;;6.55;3.00;;;;;;;;;;9965494;28;20067;-66
2022/05/19 08:11:14;;;;;;;8.85;3.85;;;;;;;;;;9968050;28;20045;-66
2022/05/19 08:16:11;;;;;;;8.48;2.80;;;;;;;;;;9972332;28;20703;-66
2022/05/19 08:21:09;;;;;;;6.75;3.00;;;;;;;;;;9957277;28;20080;-67
2022/05/19 08:26:08;;;;;;;5.43;2.78;;;;;;;;;;9963960;28;20114;-66
2022/05/19 08:31:15;;;;;;;7.00;2.50;;;;;;;;;;9956289;28;20530;-67
2022/05/19 08:36:12;;;;;;;5.82;2.67;;;;;;;;;;9954668;28;20534;-67
2022/05/19 08:41:18;;;;;;;5.30;2.35;;;;;;;;;;9957626;28;20060;-67
2022/05/19 08:46:29;;;;;;;5.18;2.53;;;;;;;;;;9970176;28;20657;-67
2022/05/19 08:51:29;;;;;;;5.82;2.85;;;;;;;;;;9956978;28;20051;-67
2022/05/19 08:56:39;;;;;;;4.45;2.08;;;;;;;;;;9963098;28;20076;-67
2022/05/19 09:01:40;;;;;;;5.53;2.10;;;;;;;;;;9962410;28;20551;-67
2022/05/19 09:07:56;;;;;;;9.70;2.22;;;;;;;;;;9985638;28;20075;-67
2022/05/19 09:11:59;;;;;;;7.82;2.72;;;;;;;;;;9977557;28;20071;-68
2022/05/19 09:16:57;;;;;;;9.63;2.65;;;;;;;;;;9960214;28;20059;-67
2022/05/19 09:22:09;;;;;;;6.95;2.13;;;;;;;;;;9965682;28;20083;-68
2022/05/19 09:27:06;;;;;;;5.90;2.00;;;;;;;;;;9966006;28;20083;-67
2022/05/19 09:32:12;;;;;;;6.80;2.00;;;;;;;;;;9961432;28;20080;-67
2022/05/19 09:37:11;;;;;;;5.38;2.25;;;;;;;;;;9961967;28;20075;-67
2022/05/19 09:42:08;;;;;;;4.40;1.92;;;;;;;;;;9986810;28;20047;-67
2022/05/19 09:47:16;;;;;;;5.32;1.80;;;;;;;;;;10016243;28;20457;-67
2022/05/19 09:52:16;;;;;;;4.18;1.95;;;;;;;;;;9985411;28;20095;-66
2022/05/19 09:57:24;;;;;;;3.47;1.50;;;;;;;;;;9968511;28;20076;-67
2022/05/19 10:02:24;;;;;;;6.15;1.98;;;;;;;;;;9967598;28;20095;-67
2022/05/19 10:07:24;;;;;;;5.40;1.95;;;;;;;;;;9957573;28;20056;-67
2022/05/19 10:12:24;;;;;;;3.78;2.00;;;;;;;;;;9968065;28;20056;-67
2022/05/19 10:17:29;;;;;;;6.30;2.05;;;;;;;;;;9966331;28;20139;-67
2022/05/19 10:22:41;;;;;;;4.38;1.92;;;;;;;;;;9965204;28;20144;-67
2022/05/19 10:33:30;;;;;;;4.78;2.00;;;;;;;;;;9954399;28;20131;-67
2022/05/19 10:38:46;;;;;;;7.43;1.95;;;;;;;;;;10005053;28;20094;-67
2022/05/19 10:44:01;;;;;;;4.85;1.95;;;;;;;;;;9961721;28;20474;-66
2022/05/19 10:48:57;;;;;;;7.25;2.45;;;;;;;;;;10003316;28;20481;-67
2022/05/19 10:53:54;;;;;;;5.32;1.83;;;;;;;;;;9969336;28;20463;-66
2022/05/19 10:59:11;;;;;;;7.43;2.55;;;;;;;;;;10023537;28;20567;-66
2022/05/19 11:04:07;;;;;;;5.72;2.30;;;;;;;;;;9995228;28;20138;-66
2022/05/19 11:09:22;;;;;;;6.05;2.22;;;;;;;;;;10025892;28;20564;-66
2022/05/19 11:14:41;;;;;;;5.55;2.15;;;;;;;;;;9977347;28;20741;-66
2022/05/19 11:20:10;;;;;;;5.65;2.22;;;;;;;;;;9961952;28;20049;-66
2022/05/19 11:30:37;;;;;;;4.80;1.98;;;;;;;;;;9987343;28;20152;-66
2022/05/19 11:35:39;;;;;;;5.28;1.75;;;;;;;;;;9977849;28;20048;-67
2022/05/19 11:40:50;;;;;;;4.97;2.10;;;;;;;;;;9991762;28;20149;-67
2022/05/19 11:45:52;;;;;;;6.73;2.37;;;;;;;;;;10027203;28;20479;-66
2022/05/19 11:56:18;;;;;;;4.10;2.10;;;;;;;;;;9985166;28;20048;-67
2022/05/19 12:01:19;;;;;;;5.78;2.05;;;;;;;;;;9986409;28;20078;-67
2022/05/19 12:06:20;;;;;;;5.38;2.00;;;;;;;;;;10035579;28;20399;-66
2022/05/19 12:11:19;;;;;;;4.30;1.98;;;;;;;;;;9982850;28;20152;-67
2022/05/19 12:16:22;;;;;;;4.85;2.15;;;;;;;;;;10034799;28;20078;-66
2022/05/19 12:21:38;;;;;;;4.03;1.75;;;;;;;;;;9978500;28;20056;-66
2022/05/19 12:26:42;;;;;;;5.88;2.03;;;;;;;;;;10042996;28;20114;-67
2022/05/19 12:31:59;;;;;;;3.85;1.98;;;;;;;;;;9956745;28;20059;-67
2022/05/19 12:37:13;;;;;;;5.20;2.20;;;;;;;;;;9957610;28;20056;-66
2022/05/19 12:42:23;;;;;;;6.40;2.28;;;;;;;;;;9958734;28;20052;-67
2022/05/19 12:47:21;;;;;;;5.03;1.98;;;;;;;;;;9951975;28;20084;-67
2022/05/19 12:52:19;;;;;;;4.38;1.63;;;;;;;;;;9975940;28;20079;-66
2022/05/19 12:57:15;;;;;;;5.75;1.90;;;;;;;;;;10004861;28;20116;-66
2022/05/19 13:02:17;;;;;;;4.50;1.95;;;;;;;;;;9947484;29;20064;-66
2022/05/19 13:07:19;;;;;;;4.90;1.50;;;;;;;;;;9974309;28;20058;-66
2022/05/19 13:12:17;;;;;;;3.63;1.90;;;;;;;;;;9984393;28;20170;-66
2022/05/19 13:17:32;;;;;;;4.03;1.90;;;;;;;;;;9989339;28;20213;-66
2022/05/19 13:22:31;;;;;;;5.60;2.08;;;;;;;;;;9981776;28;20051;-66
2022/05/19 13:32:44;;;;;;;5.15;1.52;;;;;;;;;;9988246;28;20131;-66
2022/05/19 13:37:42;;;;;;;5.10;1.65;;;;;;;;;;10093487;28;20050;-66
2022/05/19 13:42:38;;;;;;;4.13;2.00;;;;;;;;;;10133818;28;20430;-66
2022/05/19 13:47:35;;;;;;;3.10;1.33;;;;;;;;;;10114072;28;20436;-66
2022/05/19 13:52:34;;;;;;;4.25;2.15;;;;;;;;;;10099427;28;20139;-66
2022/05/19 13:57:35;;;;;;;2.67;1.30;;;;;;;;;;10018655;28;20134;-66
2022/05/19 14:02:36;;;;;;;3.58;1.85;;;;;;;;;;9980497;28;20079;-67
2022/05/19 14:07:33;;;;;;;6.53;1.83;;;;;;;;;;10118761;28;20516;-67
2022/05/19 14:12:45;;;;;;;3.95;1.50;;;;;;;;;;10088053;28;20481;-67
2022/05/19 14:17:56;;;;;;;4.80;1.90;;;;;;;;;;10020345;28;20574;-67
2022/05/19 14:22:52;;;;;;;9.15;2.28;;;;;;;;;;9973128;28;20064;-66
2022/05/19 14:27:56;;;;;;;4.28;1.70;;;;;;;;;;10004004;28;20128;-66
2022/05/19 14:32:56;;;;;;;3.45;1.67;;;;;;;;;;9970480;28;20076;-66
2022/05/19 14:37:59;;;;;;;7.65;1.65;;;;;;;;;;9964002;28;20101;-66
2022/05/19 14:43:05;;;;;;;5.75;1.75;;;;;;;;;;9965570;28;20140;-66
2022/05/19 14:48:02;;;;;;;4.10;1.50;;;;;;;;;;9963068;28;20120;-66
2022/05/19 14:53:09;;;;;;;3.83;1.50;;;;;;;;;;9964345;28;20072;-66
2022/05/19 14:58:14;;;;;;;4.82;1.77;;;;;;;;;;9966624;28;20163;-66
2022/05/19 15:03:10;;;;;;;5.15;1.80;;;;;;;;;;9980743;29;20048;-66
2022/05/19 15:08:08;;;;;;;6.50;2.20;;;;;;;;;;10100037;28;20047;-66
2022/05/19 15:13:05;;;;;;;3.30;1.35;;;;;;;;;;9989708;28;20075;-66
2022/05/19 15:18:02;;;;;;;7.35;1.80;;;;;;;;;;9981440;28;20639;-67
2022/05/19 15:22:59;;;;;;;3.75;2.10;;;;;;;;;;9988810;29;20044;-66
2022/05/19 15:27:55;;;;;;;4.60;1.70;;;;;;;;;;9971152;28;20103;-67
2022/05/19 15:32:52;;;;;;;4.50;1.92;;;;;;;;;;9967748;28;20143;-67
2022/05/19 15:37:51;;;;;;;3.25;1.50;;;;;;;;;;9959556;28;20135;-67
2022/05/19 15:42:48;;;;;;;4.07;1.83;;;;;;;;;;10021254;28;20485;-67
2022/05/19 15:47:46;;;;;;;7.85;1.98;;;;;;;;;;10005954;28;20053;-67
2022/05/19 15:52:45;;;;;;;3.58;1.40;;;;;;;;;;10020457;28;20048;-67
2022/05/19 15:58:01;;;;;;;7.82;2.10;;;;;;;;;;9969183;28;20045;-67
2022/05/19 16:02:59;;;;;;;8.00;1.90;;;;;;;;;;9954031;28;20049;-67
2022/05/19 16:07:55;;;;;;;6.72;2.10;;;;;;;;;;9955501;28;20548;-67
2022/05/19 16:13:05;;;;;;;6.95;2.03;;;;;;;;;;9975738;28;20131;-67
2022/05/19 16:18:01;;;;;;;11.20;6.03;;;;;;;;;;9976652;28;20143;-67
2022/05/19 16:22:58;;;;;;;12.13;7.00;;;;;;;;;;9959912;28;20522;-67
2022/05/19 16:27:54;;;;;;;13.25;8.20;;;;;;;;;;9961842;28;20048;-67
2022/05/19 16:32:51;;;;;;;21.20;15.82;;;;;;;;;;9956034;28;20074;-68
2022/05/19 16:37:58;;;;;;;15.40;10.98;;;;;;;;;;9988914;28;20576;-68
2022/05/19 16:42:55;;;;;;;13.77;10.95;;;;;;;;;;9998029;28;21532;-68
2022/05/19 16:47:52;;;;;;;21.15;14.73;;;;;;;;;;9981650;28;20055;-67
2022/05/19 16:52:49;;;;;;;15.70;12.65;;;;;;;;;;9984807;28;20052;-68
2022/05/19 16:57:48;;;;;;;15.10;13.30;;;;;;;;;;9968162;28;20565;-67
2022/05/19 17:02:45;;;;;;;16.70;11.95;;;;;;;;;;9960033;28;20760;-66
2022/05/19 17:07:42;;;;;;;12.13;7.88;;;;;;;;;;9956384;28;20059;-65
2022/05/19 17:12:39;;;;;;;14.25;8.80;;;;;;;;;;9977876;28;20148;-66
2022/05/19 17:17:35;;;;;;;12.95;9.68;;;;;;;;;;9982179;28;20109;-65
2022/05/19 17:22:32;;;;;;;13.95;9.88;;;;;;;;;;9972682;28;20068;-65
2022/05/19 17:27:28;;;;;;;18.58;13.32;;;;;;;;;;9967870;28;20073;-66
2022/05/19 17:32:25;;;;;;;18.13;15.20;;;;;;;;;;9987455;28;20075;-66
2022/05/19 17:37:22;;;;;;;17.25;13.32;;;;;;;;;;9961739;28;20046;-67
2022/05/19 17:42:18;;;;;;;19.40;15.60;;;;;;;;;;9976296;28;20131;-66
2022/05/19 17:47:14;;;;;;;18.52;15.73;;;;;;;;;;10018373;28;20044;-66
2022/05/19 17:52:11;;;;;;;20.38;15.60;;;;;;;;;;10061846;28;20409;-66
2022/05/19 17:57:08;;;;;;;19.10;16.58;;;;;;;;;;10007874;28;20099;-66
2022/05/19 18:02:04;;;;;;;19.27;17.27;;;;;;;;;;10024224;28;21035;-65
2022/05/19 18:07:01;;;;;;;21.42;16.73;;;;;;;;;;10013673;28;20056;-66
2022/05/19 18:11:57;;;;;;;19.95;16.60;;;;;;;;;;9987155;29;20052;-66
2022/05/19 18:22:09;;;;;;;19.23;17.20;;;;;;;;;;9992968;29;20091;-65
2022/05/19 18:27:07;;;;;;;21.02;17.58;;;;;;;;;;9990821;28;20136;-66
2022/05/19 18:32:03;;;;;;;19.27;17.13;;;;;;;;;;9978168;29;20094;-66
2022/05/19 18:37:00;;;;;;;18.98;16.40;;;;;;;;;;10011441;28;20036;-65
2022/05/19 18:47:12;;;;;;;16.65;14.70;;;;;;;;;;9999930;28;20827;-65
2022/05/19 18:52:09;;;;;;;16.90;15.10;;;;;;;;;;9971640;28;20052;-66
2022/05/19 18:57:05;;;;;;;18.60;16.67;;;;;;;;;;9975211;28;20072;-65
2022/05/19 19:02:02;;;;;;;18.27;16.33;;;;;;;;;;9988377;28;20069;-65
2022/05/19 19:06:59;;;;;;;20.30;15.98;;;;;;;;;;9972945;28;20146;-65
2022/05/19 19:11:55;;;;;;;19.40;16.58;;;;;;;;;;10049292;28;20139;-65
2022/05/19 19:16:52;;;;;;;20.60;16.98;;;;;;;;;;9979071;28;20510;-65
2022/05/19 19:21:51;;;;;;;21.13;16.27;;;;;;;;;;9989314;28;20332;-65
2022/05/19 19:26:47;;;;;;;21.02;17.48;;;;;;;;;;9966423;28;20052;-66
2022/05/19 19:31:44;;;;;;;20.15;17.98;;;;;;;;;;9960156;28;20154;-67
2022/05/19 19:36:42;;;;;;;19.67;17.52;;;;;;;;;;9944947;28;20059;-63
2022/05/19 19:41:38;;;;;;;20.25;18.13;;;;;;;;;;9965733;28;20100;-63
2022/05/19 19:46:40;;;;;;;25.90;23.17;;;;;;;;;;9980307;28;20446;-63
2022/05/19 19:56:55;;;;;;;27.90;23.42;;;;;;;;;;9977799;28;20139;-69
2022/05/19 20:01:51;;;;;;;24.15;21.55;;;;;;;;;;9961211;28;20503;-69
2022/05/19 20:06:49;;;;;;;26.08;21.27;;;;;;;;;;10080760;28;20117;-69
2022/05/19 20:11:45;;;;;;;27.40;24.40;;;;;;;;;;10014052;28;20052;-69
2022/05/19 20:16:41;;;;;;;24.05;21.55;;;;;;;;;;9975568;29;20127;-68
2022/05/19 20:21:39;;;;;;;18.52;16.00;;;;;;;;;;9986385;29;20379;-69
2022/05/19 20:26:37;;;;;;;21.48;19.13;;;;;;;;;;10040333;28;20418;-69
2022/05/19 20:31:33;;;;;;;21.38;18.98;;;;;;;;;;9986653;29;20525;-70
2022/05/19 20:36:30;;;;;;;18.95;16.95;;;;;;;;;;10015414;28;20044;-69
2022/05/19 20:41:26;;;;;;;19.63;17.52;;;;;;;;;;9987225;29;20554;-66
2022/05/19 20:46:22;;;;;;;18.58;16.67;;;;;;;;;;9986543;28;20045;-67
2022/05/19 20:51:19;;;;;;;20.77;18.65;;;;;;;;;;9985479;29;20064;-67
2022/05/19 20:56:15;;;;;;;22.05;19.00;;;;;;;;;;9987166;28;20118;-67
2022/05/19 21:01:11;;;;;;;20.52;18.38;;;;;;;;;;9981697;28;20040;-67
2022/05/19 21:06:09;;;;;;;20.48;17.00;;;;;;;;;;9984667;28;20445;-65
2022/05/19 21:11:05;;;;;;;21.38;19.15;;;;;;;;;;9983006;29;20068;-70
2022/05/19 21:16:01;;;;;;;21.88;18.77;;;;;;;;;;9971618;28;20403;-69
2022/05/19 21:20:58;;;;;;;23.13;20.70;;;;;;;;;;9986856;29;20498;-67
2022/05/19 21:25:55;;;;;;;23.30;20.92;;;;;;;;;;9990432;28;20079;-69
2022/05/19 21:30:51;;;;;;;25.13;21.90;;;;;;;;;;9988311;29;20044;-69
2022/05/19 21:35:48;;;;;;;24.70;22.10;;;;;;;;;;9994938;28;20135;-69
2022/05/19 21:40:45;;;;;;;26.20;23.40;;;;;;;;;;9988375;29;20459;-65
2022/05/19 21:45:41;;;;;;;30.15;24.50;;;;;;;;;;9974021;29;20079;-63
2022/05/19 21:50:38;;;;;;;25.92;23.08;;;;;;;;;;9985071;29;20060;-64
2022/05/19 21:55:34;;;;;;;25.67;22.92;;;;;;;;;;9986878;28;20127;-64
2022/05/19 22:00:35;;;;;;;25.98;23.27;;;;;;;;;;9979527;28;20072;-64
2022/05/19 22:05:32;;;;;;;26.65;22.55;;;;;;;;;;9978281;28;20048;-65
2022/05/19 22:10:29;;;;;;;24.75;22.05;;;;;;;;;;9988122;28;20132;-65
2022/05/19 22:15:26;;;;;;;27.33;23.98;;;;;;;;;;10039800;28;20074;-66
2022/05/19 22:20:23;;;;;;;24.75;22.25;;;;;;;;;;9994467;29;20549;-65
2022/05/19 22:25:20;;;;;;;28.30;25.33;;;;;;;;;;9994947;28;20179;-67
2022/05/19 22:30:17;;;;;;;29.63;24.60;;;;;;;;;;9992171;29;20056;-67
2022/05/19 22:35:13;;;;;;;25.60;22.90;;;;;;;;;;10030916;28;20133;-67
2022/05/19 22:40:10;;;;;;;24.55;21.48;;;;;;;;;;10078377;28;20052;-68
2022/05/19 22:45:10;;;;;;;24.70;22.10;;;;;;;;;;9980531;29;20546;-67
2022/05/19 22:50:11;;;;;;;27.88;22.52;;;;;;;;;;9971151;29;20462;-67
2022/05/19 22:55:07;;;;;;;26.80;23.40;;;;;;;;;;9988252;29;20052;-67
2022/05/19 23:00:05;;;;;;;25.05;21.42;;;;;;;;;;9964367;28;20121;-68
2022/05/19 23:05:01;;;;;;;26.52;22.63;;;;;;;;;;10023792;28;20076;-65
2022/05/19 23:09:59;;;;;;;23.08;20.55;;;;;;;;;;10073552;28;20667;-67
2022/05/19 23:14:56;;;;;;;26.02;23.17;;;;;;;;;;9991896;29;20186;-68
2022/05/19 23:19:55;;;;;;;25.40;22.10;;;;;;;;;;9984779;29;20601;-67
2022/05/19 23:24:51;;;;;;;25.77;22.35;;;;;;;;;;10035705;28;20038;-68
2022/05/19 23:29:48;;;;;;;25.95;23.35;;;;;;;;;;10014715;28;20102;-66
2022/05/19 23:34:44;;;;;;;25.92;23.15;;;;;;;;;;9987179;29;20083;-67
2022/05/19 23:39:40;;;;;;;25.00;22.30;;;;;;;;;;9988659;29;20127;-67
2022/05/19 23:44:37;;;;;;;26.52;23.73;;;;;;;;;;10030227;28;20493;-68
2022/05/19 23:49:33;;;;;;;26.25;23.50;;;;;;;;;;10004927;28;20128;-68
2022/05/19 23:54:30;;;;;;;25.30;22.13;;;;;;;;;;10013551;28;20476;-68
2022/05/19 23:59:26;;;;;;;24.15;21.75;;;;;;;;;;10001241;28;20147;-65
